createdAt,value
2023-03-20T00:02:19.291Z,976.15
2023-03-20T00:07:19.262Z,976.12
2023-03-20T00:12:19.156Z,976.12
2023-03-20T00:17:20.133Z,976.15
2023-03-20T00:22:19.376Z,976.15
2023-03-20T00:27:19.142Z,976.13
2023-03-20T00:32:18.943Z,976.10
2023-03-20T00:37:18.882Z,976.14
2023-03-20T00:42:18.917Z,976.12
2023-03-20T00:47:18.810Z,976.18
2023-03-20T00:52:18.722Z,976.12
2023-03-20T00:57:18.669Z,976.11
2023-03-20T01:02:18.674Z,976.21
2023-03-20T01:07:18.589Z,976.08
2023-03-20T01:12:18.471Z,976.05
2023-03-20T01:17:18.408Z,976.08
2023-03-20T01:22:18.687Z,976.10
2023-03-20T01:27:18.305Z,976.06
2023-03-20T01:32:18.207Z,976.04
2023-03-20T01:37:18.197Z,976.06
2023-03-20T01:42:18.072Z,976.04
2023-03-20T01:47:18.066Z,976.07
2023-03-20T01:52:18.034Z,976.03
2023-03-20T01:57:17.931Z,976.10
2023-03-20T02:02:17.839Z,976.12
2023-03-20T02:07:17.774Z,976.04
2023-03-20T02:12:17.738Z,976.01
2023-03-20T02:17:17.748Z,976.07
2023-03-20T02:22:17.574Z,976.05
2023-03-20T02:27:17.531Z,976.11
2023-03-20T02:32:17.464Z,976.10
2023-03-20T02:37:17.427Z,976.15
2023-03-20T02:42:17.356Z,976.15
2023-03-20T02:47:17.260Z,976.19
2023-03-20T02:52:17.193Z,976.17
2023-03-20T02:57:18.123Z,976.20
2023-03-20T03:02:17.149Z,976.21
2023-03-20T03:07:17.097Z,976.20
2023-03-20T03:12:17.003Z,976.28
2023-03-20T03:17:16.908Z,976.29
2023-03-20T03:22:16.886Z,976.32
2023-03-20T03:27:16.801Z,976.25
2023-03-20T03:32:16.693Z,976.30
2023-03-20T03:37:16.658Z,976.28
2023-03-20T03:42:16.629Z,976.31
2023-03-20T03:47:16.549Z,976.41
2023-03-20T03:52:16.476Z,976.39
2023-03-20T03:57:16.367Z,976.50
2023-03-20T04:02:16.394Z,976.52
2023-03-20T04:07:16.274Z,976.50
2023-03-20T04:12:16.194Z,976.44
2023-03-20T04:17:16.155Z,976.55
2023-03-20T04:22:16.117Z,976.57
2023-03-20T04:27:16.089Z,976.63
2023-03-20T04:32:15.937Z,976.66
2023-03-20T04:37:15.895Z,976.63
2023-03-20T04:42:16.790Z,976.63
2023-03-20T04:47:15.752Z,976.64
2023-03-20T04:52:15.706Z,976.70
2023-03-20T04:57:15.676Z,976.75
2023-03-20T05:02:15.621Z,976.79
2023-03-20T05:07:15.549Z,976.69
2023-03-20T05:12:15.494Z,976.75
2023-03-20T05:17:15.426Z,976.74
2023-03-20T05:22:15.326Z,976.76
2023-03-20T05:27:15.332Z,976.73
2023-03-20T05:32:15.190Z,976.72
2023-03-20T05:37:15.111Z,976.82
2023-03-20T05:42:15.038Z,976.81
2023-03-20T05:47:14.967Z,976.86
2023-03-20T05:52:14.947Z,976.98
2023-03-20T05:57:14.857Z,976.95
2023-03-20T06:02:14.811Z,977.03
2023-03-20T06:07:14.734Z,977.14
2023-03-20T06:12:14.693Z,977.23
2023-03-20T06:17:14.630Z,977.25
2023-03-20T06:22:14.579Z,977.31
2023-03-20T06:27:14.516Z,977.37
2023-03-20T06:32:14.433Z,977.44
2023-03-20T06:37:14.345Z,977.50
2023-03-20T06:42:16.160Z,977.41
2023-03-20T06:47:14.269Z,977.46
2023-03-20T06:52:14.188Z,977.39
2023-03-20T06:57:15.386Z,977.44
2023-03-20T07:02:14.129Z,977.52
2023-03-20T07:07:13.985Z,977.54
2023-03-20T07:12:14.240Z,977.56
2023-03-20T07:17:13.855Z,977.53
2023-03-20T07:22:13.809Z,977.55
2023-03-20T07:27:13.726Z,977.57
2023-03-20T07:32:13.684Z,977.59
2023-03-20T07:37:13.605Z,977.59
2023-03-20T07:42:13.515Z,977.65
2023-03-20T07:47:13.436Z,977.69
2023-03-20T07:52:13.377Z,977.68
2023-03-20T07:57:13.305Z,977.72
2023-03-20T08:02:13.587Z,977.77
2023-03-20T08:07:13.338Z,977.80
2023-03-20T08:12:13.169Z,977.75
2023-03-20T08:17:16.058Z,977.76
2023-03-20T08:22:12.964Z,977.86
2023-03-20T08:27:12.900Z,977.79
2023-03-20T08:32:12.855Z,977.72
2023-03-20T08:37:12.785Z,977.69
2023-03-20T08:42:12.729Z,977.70
2023-03-20T08:47:12.731Z,977.69
2023-03-20T08:52:12.596Z,977.70
2023-03-20T08:57:12.619Z,977.74
2023-03-20T09:02:12.628Z,977.79
2023-03-20T09:07:12.392Z,977.76
2023-03-20T09:12:12.325Z,977.64
2023-03-20T09:17:12.257Z,977.65
2023-03-20T09:22:12.186Z,977.59
2023-03-20T09:27:12.127Z,977.53
2023-03-20T09:32:12.074Z,977.50
2023-03-20T09:37:12.008Z,977.56
2023-03-20T09:42:11.955Z,977.54
2023-03-20T09:47:20.303Z,977.50
2023-03-20T09:52:12.824Z,977.53
2023-03-20T09:57:11.759Z,977.49
2023-03-20T10:02:11.777Z,977.47
2023-03-20T10:07:11.643Z,977.46
2023-03-20T10:12:11.927Z,977.40
2023-03-20T10:17:11.523Z,977.39
2023-03-20T10:22:11.474Z,977.33
2023-03-20T10:27:11.361Z,977.33
2023-03-20T10:32:11.354Z,977.27
2023-03-20T10:37:11.248Z,977.32
2023-03-20T10:42:12.126Z,977.29
2023-03-20T10:47:11.191Z,977.28
2023-03-20T10:52:11.098Z,977.15
2023-03-20T10:57:10.972Z,977.14
2023-03-20T11:02:10.953Z,977.08
2023-03-20T11:07:10.895Z,977.04
2023-03-20T11:12:10.788Z,977.09
2023-03-20T11:17:10.752Z,977.02
2023-03-20T11:22:10.666Z,977.06
2023-03-20T11:27:10.645Z,977.00
2023-03-20T11:32:10.606Z,977.03
2023-03-20T11:37:11.097Z,976.99
2023-03-20T11:42:10.406Z,976.89
2023-03-20T11:47:10.324Z,976.92
2023-03-20T11:52:10.320Z,976.95
2023-03-20T11:57:10.227Z,976.88
2023-03-20T12:02:10.192Z,976.87
2023-03-20T12:07:10.092Z,976.86
2023-03-20T12:12:10.056Z,976.89
2023-03-20T12:17:09.954Z,976.82
2023-03-20T12:22:09.901Z,976.79
2023-03-20T12:27:09.829Z,976.74
2023-03-20T12:32:09.813Z,976.73
2023-03-20T12:37:09.729Z,976.71
2023-03-20T12:42:09.680Z,976.64
2023-03-20T12:47:09.610Z,976.59
2023-03-20T12:52:09.545Z,976.58
2023-03-20T12:57:09.461Z,976.54
2023-03-20T13:02:09.395Z,976.54
2023-03-20T13:07:09.338Z,976.51
2023-03-20T13:12:09.293Z,976.49
2023-03-20T13:17:09.194Z,976.34
2023-03-20T13:22:09.173Z,976.33
2023-03-20T13:27:09.106Z,976.28
2023-03-20T13:32:09.033Z,976.24
2023-03-20T13:37:22.347Z,976.27
2023-03-20T13:42:09.893Z,976.21
2023-03-20T13:47:08.937Z,976.21
2023-03-20T13:52:08.778Z,976.24
2023-03-20T13:57:08.729Z,976.31
2023-03-20T14:02:08.660Z,976.25
2023-03-20T14:07:08.567Z,976.23
2023-03-20T14:12:08.550Z,976.20
2023-03-20T14:17:08.459Z,976.22
2023-03-20T14:22:08.744Z,976.31
2023-03-20T14:27:08.421Z,976.29
2023-03-20T14:32:08.274Z,976.27
2023-03-20T14:37:08.532Z,976.23
2023-03-20T14:42:09.129Z,976.30
2023-03-20T14:47:09.618Z,976.22
2023-03-20T14:52:08.031Z,976.17
2023-03-20T14:57:07.948Z,976.13
2023-03-20T15:02:09.063Z,976.13
2023-03-20T15:07:09.037Z,976.05
2023-03-20T15:12:11.485Z,976.04
2023-03-20T15:17:10.834Z,976.00
2023-03-20T15:22:07.644Z,976.02
2023-03-20T15:27:07.542Z,975.98
2023-03-20T15:32:14.472Z,975.93
2023-03-20T15:37:08.446Z,975.90
2023-03-20T15:42:07.356Z,975.92
2023-03-20T15:47:07.295Z,975.89
2023-03-20T15:52:07.267Z,975.96
2023-03-20T15:57:08.136Z,975.98
2023-03-20T16:02:07.255Z,975.98
2023-03-20T16:07:07.526Z,975.93
2023-03-20T16:12:07.003Z,975.88
2023-03-20T16:17:06.923Z,975.90
2023-03-20T16:22:06.888Z,975.90
2023-03-20T16:27:06.802Z,975.90
2023-03-20T16:32:06.772Z,975.96
2023-03-20T16:37:06.661Z,976.01
2023-03-20T16:42:06.733Z,975.98
2023-03-20T16:47:06.657Z,975.99
2023-03-20T16:52:06.493Z,976.02
2023-03-20T16:57:06.402Z,976.03
2023-03-20T17:02:06.352Z,976.06
2023-03-20T17:07:06.306Z,976.12
2023-03-20T17:12:06.241Z,976.12
2023-03-20T17:17:06.174Z,976.12
2023-03-20T17:22:06.087Z,976.11
2023-03-20T17:27:06.059Z,976.18
2023-03-20T17:32:06.330Z,976.17
2023-03-20T17:37:05.897Z,976.18
2023-03-20T17:42:05.849Z,976.22
2023-03-20T17:47:05.804Z,976.28
2023-03-20T17:52:05.738Z,976.28
2023-03-20T17:57:05.667Z,976.29
2023-03-20T18:02:05.800Z,976.30
2023-03-20T18:07:05.530Z,976.36
2023-03-20T18:12:05.499Z,976.40
2023-03-20T18:17:05.404Z,976.44
2023-03-20T18:22:05.329Z,976.48
2023-03-20T18:27:05.288Z,976.49
2023-03-20T18:32:05.234Z,976.46
2023-03-20T18:37:05.141Z,976.47
2023-03-20T18:42:05.115Z,976.54
2023-03-20T18:47:05.046Z,976.48
2023-03-20T18:52:04.979Z,976.52
2023-03-20T18:57:04.901Z,976.51
2023-03-20T19:02:04.948Z,976.50
2023-03-20T19:07:04.799Z,976.52
2023-03-20T19:12:04.737Z,976.52
2023-03-20T19:17:04.632Z,976.47
2023-03-20T19:22:04.637Z,976.48
2023-03-20T19:27:04.520Z,976.50
2023-03-20T19:32:04.469Z,976.57
2023-03-20T19:37:04.399Z,976.56
2023-03-20T19:42:24.555Z,976.61
2023-03-20T19:47:05.306Z,976.68
2023-03-20T19:52:04.205Z,976.73
2023-03-20T19:57:04.143Z,976.76
2023-03-20T20:02:04.175Z,976.81
2023-03-20T20:07:47.598Z,976.89
2023-03-20T20:12:04.947Z,976.78
2023-03-20T20:17:03.912Z,976.76
2023-03-20T20:22:22.541Z,976.75
2023-03-20T20:27:16.328Z,976.70
2023-03-20T20:32:04.798Z,976.72
2023-03-20T20:42:04.563Z,976.72
2023-03-20T20:47:03.474Z,976.68
2023-03-20T20:52:03.422Z,976.72
2023-03-20T20:57:03.560Z,976.66
2023-03-20T21:02:03.310Z,976.70
2023-03-20T21:07:09.814Z,976.76
2023-03-20T21:12:04.192Z,976.69
2023-03-20T21:17:03.270Z,976.68
2023-03-20T21:22:03.043Z,976.62
2023-03-20T21:27:02.961Z,976.66
2023-03-20T21:32:03.007Z,976.68
2023-03-20T21:37:56.141Z,976.71
2023-03-20T21:42:03.800Z,976.73
2023-03-20T21:48:00.961Z,976.66
2023-03-20T21:57:55.032Z,976.58
2023-03-20T22:02:14.368Z,976.58
2023-03-20T22:07:38.283Z,976.53
2023-03-20T22:12:56.000Z,976.61
2023-03-20T22:47:02.980Z,976.71
2023-03-20T22:52:22.580Z,976.70
2023-03-20T22:57:02.803Z,976.64
2023-03-20T23:02:01.790Z,976.59
2023-03-20T23:07:01.746Z,976.53
2023-03-20T23:12:01.664Z,976.51
2023-03-20T23:17:01.559Z,976.58
2023-03-20T23:22:01.478Z,976.65
2023-03-20T23:27:01.453Z,976.67
2023-03-20T23:32:01.381Z,976.60
2023-03-20T23:37:01.332Z,976.59
2023-03-20T23:42:20.366Z,976.57
2023-03-20T23:52:02.085Z,976.52
2023-03-20T23:57:01.031Z,976.53
